Time;durP1;ratioP1;P1;durP2;ratioP2;P2;SDS_P1;SDS_P2;PMS_P1;PMS_P2;Temp;Humidity;BMP_temperature;BMP_pressure;BME280_temperature;BME280_humidity;BME280_pressure;Samples;Min_cycle;Max_cycle;Signal;HPM_P1;HPM_P2
2023/02/01 00:00:23;;;;;;;2.83;0.80;;;;;;;5.61;65.36;99731.38;4990321;28;100828;-79
2023/02/01 00:02:49;;;;;;;4.10;1.10;;;;;;;5.55;65.30;99684.66;4958080;28;100994;-80
2023/02/01 00:05:15;;;;;;;2.53;0.50;;;;;;;5.66;65.03;99680.88;4967571;28;97062;-80
2023/02/01 00:07:40;;;;;;;3.03;1.00;;;;;;;5.65;65.53;99673.97;4958084;28;96928;-79
2023/02/01 00:10:07;;;;;;;5.07;1.20;;;;;;;5.68;64.84;99671.31;4974775;28;101495;-82
2023/02/01 00:12:32;;;;;;;5.13;0.90;;;;;;;5.70;65.31;99679.06;4973415;28;97902;-79
2023/02/01 00:14:58;;;;;;;8.17;1.90;;;;;;;5.61;65.19;99664.53;4971079;28;97191;-78
2023/02/01 00:17:24;;;;;;;3.53;1.20;;;;;;;5.72;64.88;99674.69;4973746;28;97687;-78
2023/02/01 00:19:50;;;;;;;4.83;1.37;;;;;;;5.71;65.03;99685.16;4977546;28;101003;-79
2023/02/01 00:22:15;;;;;;;2.33;0.87;;;;;;;5.70;65.24;99689.47;4985185;28;97973;-79
2023/02/01 00:24:41;;;;;;;3.70;1.13;;;;;;;5.68;65.44;99681.72;4977579;28;97395;-79
2023/02/01 00:27:06;;;;;;;5.10;1.03;;;;;;;5.59;65.45;99671.53;4994987;28;97383;-83
2023/02/01 00:29:32;;;;;;;4.10;0.90;;;;;;;5.66;65.53;99683.50;4996981;28;101506;-79
2023/02/01 00:31:57;;;;;;;4.27;0.93;;;;;;;5.73;65.46;99688.56;5009920;28;97706;-82
2023/02/01 00:34:23;;;;;;;3.43;1.13;;;;;;;5.67;65.47;99689.56;5010869;28;96691;-79
2023/02/01 00:36:49;;;;;;;2.83;1.10;;;;;;;5.62;65.60;99688.84;5003339;28;96875;-80
2023/02/01 00:39:15;;;;;;;1.80;1.03;;;;;;;5.60;66.13;99688.84;5027329;28;101423;-80
2023/02/01 00:41:40;;;;;;;3.07;0.67;;;;;;;5.59;65.98;99686.31;4965815;28;100943;-81
2023/02/01 00:44:06;;;;;;;3.17;1.00;;;;;;;5.56;65.77;99683.78;4988140;28;97262;-83
2023/02/01 00:46:32;;;;;;;1.83;0.80;;;;;;;5.60;66.19;99696.66;5010979;28;97212;-80
2023/02/01 00:48:57;;;;;;;3.57;0.97;;;;;;;5.59;65.88;99681.94;4975491;28;101235;-79
2023/02/01 00:51:26;;;;;;;5.37;0.93;;;;;;;5.63;66.26;99688.78;4999041;28;97789;-80
2023/02/01 00:53:52;;;;;;;1.97;1.00;;;;;;;5.63;66.05;99690.53;4963478;28;97163;-79
2023/02/01 00:56:18;;;;;;;2.67;1.03;;;;;;;5.64;65.97;99687.91;4989884;28;97055;-79
2023/02/01 00:58:44;;;;;;;6.67;2.00;;;;;;;5.68;65.91;99688.69;4964515;28;101207;-78
2023/02/01 01:01:19;;;;;;;2.03;0.87;;;;;;;5.67;66.08;99687.84;4992994;28;97857;-79
2023/02/01 01:03:51;;;;;;;2.07;0.90;;;;;;;5.66;65.93;99691.31;5009875;28;97491;-78
2023/02/01 01:06:18;;;;;;;;;;;;;;;5.64;65.73;99700.94;4981526;28;96890;-82
2023/02/01 01:08:44;;;;;;;3.77;1.10;;;;;;;5.58;65.61;99690.63;4976925;28;101295;-79
2023/02/01 01:11:18;;;;;;;5.03;1.57;;;;;;;5.66;66.24;99716.50;5008676;28;101713;-79
2023/02/01 01:13:49;;;;;;;4.10;1.57;;;;;;;5.67;66.19;99715.59;5020443;27;97436;-79
2023/02/01 01:16:15;;;;;;;4.32;1.48;;;;;;;5.63;66.22;99721.78;4971291;28;97473;-80
2023/02/01 01:18:41;;;;;;;6.73;1.53;;;;;;;5.69;66.26;99726.84;4980763;28;101334;-78
2023/02/01 01:21:08;;;;;;;5.80;1.43;;;;;;;5.58;66.23;99692.38;4974990;28;101331;-82
2023/02/01 01:23:34;;;;;;;8.23;1.77;;;;;;;5.58;66.42;99708.00;4976827;28;96764;-78
2023/02/01 01:26:00;;;;;;;5.90;2.10;;;;;;;5.61;66.48;99706.22;4994191;28;96820;-79
2023/02/01 01:28:26;;;;;;;5.03;1.80;;;;;;;5.63;66.50;99716.56;4972843;28;101667;-79
2023/02/01 01:30:52;;;;;;;5.17;1.93;;;;;;;5.65;66.27;99735.63;4985448;28;101208;-78
2023/02/01 01:33:17;;;;;;;3.07;1.40;;;;;;;5.64;66.31;99753.00;4993937;28;97329;-78
2023/02/01 01:35:43;;;;;;;3.83;1.40;;;;;;;5.66;66.70;99755.56;5017367;28;97547;-78
2023/02/01 01:38:10;;;;;;;6.87;1.33;;;;;;;5.59;66.58;99733.16;4994810;28;101180;-82
2023/02/01 01:40:35;;;;;;;5.83;1.33;;;;;;;5.64;66.47;99734.78;4982424;28;101475;-80
2023/02/01 01:43:01;;;;;;;4.13;1.13;;;;;;;5.60;66.49;99737.47;4970166;28;97496;-79
2023/02/01 01:45:34;;;;;;;3.90;0.83;;;;;;;5.60;65.94;99737.47;5004533;28;97748;-78
2023/02/01 01:48:04;;;;;;;3.00;1.10;;;;;;;5.60;66.40;99727.91;4988862;28;101401;-78
2023/02/01 01:50:37;;;;;;;5.23;1.10;;;;;;;5.63;66.61;99734.81;4983254;28;101200;-77
2023/02/01 01:53:05;;;;;;;1.63;0.90;;;;;;;5.56;66.80;99722.81;5001350;28;97164;-78
2023/02/01 01:55:33;;;;;;;4.03;1.50;;;;;;;5.54;66.68;99730.66;4986920;28;96983;-80
2023/02/01 01:58:05;;;;;;;4.57;1.30;;;;;;;5.51;67.09;99722.06;4989323;28;101390;-79
2023/02/01 02:00:31;;;;;;;5.13;1.40;;;;;;;5.53;67.40;99728.97;5005694;28;101156;-81
2023/02/01 02:03:03;;;;;;;6.63;1.40;;;;;;;5.53;67.18;99728.97;4976004;28;98077;-82
2023/02/01 02:05:29;;;;;;;5.80;1.73;;;;;;;5.53;67.18;99721.16;4997997;28;97369;-79
2023/02/01 02:07:57;;;;;;;6.40;1.83;;;;;;;5.50;67.39;99725.53;4972033;28;98476;-79
2023/02/01 02:10:59;;;;;;;5.60;1.70;;;;;;;5.48;67.54;99724.75;5000517;28;101635;-79
2023/02/01 02:13:09;;;;;;;6.27;2.13;;;;;;;5.40;67.66;99706.69;4978094;28;96838;-82
2023/02/01 02:15:37;;;;;;;4.70;1.63;;;;;;;5.55;67.52;99731.50;4989870;28;97078;-81
2023/02/01 02:18:32;;;;;;;5.00;2.00;;;;;;;5.54;67.84;99735.00;4970787;28;101337;-79
2023/02/01 02:21:12;;;;;;;8.03;1.80;;;;;;;5.51;67.89;99716.88;4978660;28;101801;-78
2023/02/01 02:23:56;;;;;;;7.40;1.70;;;;;;;5.57;67.65;99725.38;4994171;28;97207;-78
2023/02/01 02:26:42;;;;;;;5.70;1.90;;;;;;;5.56;67.57;99718.47;4975212;28;97385;-79
2023/02/01 02:29:26;;;;;;;6.70;1.53;;;;;;;5.60;67.75;99727.06;4985236;28;100916;-80
2023/02/01 02:32:08;;;;;;;9.87;2.63;;;;;;;5.58;67.62;99715.81;4968665;28;101194;-78
2023/02/01 02:34:40;;;;;;;;;;;;;;;5.55;67.89;99716.75;4979396;28;97190;-78
2023/02/01 02:37:11;;;;;;;9.57;2.42;;;;;;;5.50;67.66;99707.31;4959386;28;97677;-80
2023/02/01 02:39:45;;;;;;;8.67;2.37;;;;;;;5.58;67.65;99710.59;4975928;28;101623;-79
2023/02/01 02:48:18;;;;;;;6.40;2.17;;;;;;;5.54;67.32;99702.03;4996664;28;96899;-79
2023/02/01 03:04:37;;;;;;;10.57;2.20;;;;;;;5.56;66.49;99713.25;4984045;28;101415;-78
2023/02/01 03:07:15;;;;;;;12.23;2.87;;;;;;;5.59;66.46;99718.41;4959532;28;96819;-78
2023/02/01 03:09:44;;;;;;;12.57;2.90;;;;;;;5.52;65.99;99702.94;4976823;28;97522;-81
2023/02/01 03:15:16;;;;;;;8.10;2.07;;;;;;;5.55;66.09;99716.75;4960298;28;101534;-80
2023/02/01 03:17:45;;;;;;;13.43;2.47;;;;;;;5.63;65.95;99720.03;4934791;28;96805;-78
2023/02/01 03:20:13;;;;;;;8.97;2.40;;;;;;;5.64;65.38;99718.28;4933683;28;97823;-81
2023/02/01 03:22:40;;;;;;;12.37;2.57;;;;;;;5.67;65.38;99713.00;4963579;28;100967;-78
2023/02/01 03:25:10;;;;;;;8.03;2.43;;;;;;;5.63;65.14;99714.81;4935314;28;100215;-78
2023/02/01 03:27:49;;;;;;;12.00;2.43;;;;;;;5.63;65.49;99720.03;4932599;28;97192;-80
2023/02/01 03:30:21;;;;;;;8.17;2.73;;;;;;;5.57;65.25;99706.31;4948510;28;96944;-78
2023/02/01 03:32:58;;;;;;;9.50;2.07;;;;;;;5.61;65.39;99716.63;4961084;28;101627;-80
2023/02/01 03:35:33;;;;;;;9.63;3.30;;;;;;;5.60;65.49;99719.25;4937351;28;101756;-78
2023/02/01 03:38:22;;;;;;;13.13;2.53;;;;;;;5.62;65.31;99727.88;4961826;28;97199;-78
2023/02/01 03:40:59;;;;;;;13.37;2.83;;;;;;;5.56;64.74;99721.06;4964961;28;97468;-78
2023/02/01 03:43:27;;;;;;;9.60;2.87;;;;;;;5.60;65.15;99724.44;4935184;28;101955;-78
2023/02/01 03:45:58;;;;;;;13.03;3.27;;;;;;;5.53;65.13;99708.13;4956612;28;101203;-78
2023/02/01 03:48:26;;;;;;;12.33;2.37;;;;;;;5.60;64.90;99711.44;4984511;28;97084;-78
2023/02/01 03:50:54;;;;;;;12.60;2.93;;;;;;;5.58;64.73;99719.25;4991240;28;97023;-78
2023/02/01 03:53:23;;;;;;;12.70;2.37;;;;;;;5.53;64.50;99702.06;4973763;28;101035;-78
2023/02/01 03:55:49;;;;;;;12.63;2.37;;;;;;;5.62;64.72;99707.06;5000502;28;101229;-78
2023/02/01 03:58:23;;;;;;;12.00;3.43;;;;;;;5.63;64.63;99700.94;4971542;28;97178;-78
2023/02/01 04:00:54;;;;;;;9.07;2.73;;;;;;;5.61;64.17;99695.78;4970582;28;97406;-79
2023/02/01 04:03:21;;;;;;;11.53;4.03;;;;;;;5.63;64.17;99699.19;4958316;28;101302;-79
2023/02/01 04:05:51;;;;;;;10.80;2.83;;;;;;;5.52;64.22;99679.50;4984251;28;101148;-80
2023/02/01 04:08:19;;;;;;;13.17;2.97;;;;;;;5.53;64.10;99678.63;4971349;28;96845;-79
2023/02/01 04:10:45;;;;;;;10.60;2.63;;;;;;;5.64;63.84;99698.31;4992138;28;97312;-79
2023/02/01 04:13:11;;;;;;;9.30;2.40;;;;;;;5.61;63.52;99707.94;4983218;28;97946;-78
2023/02/01 04:15:37;;;;;;;9.87;2.57;;;;;;;5.58;63.98;99693.22;4954992;28;101860;-80
2023/02/01 04:18:02;;;;;;;9.57;2.37;;;;;;;5.58;63.63;99695.84;4962030;28;98078;-78
2023/02/01 04:20:28;;;;;;;11.60;2.70;;;;;;;5.49;63.78;99674.38;4978670;28;97139;-79
2023/02/01 04:22:54;;;;;;;11.03;2.50;;;;;;;5.59;63.67;99692.34;4962775;28;97367;-78
2023/02/01 04:25:20;;;;;;;10.00;2.47;;;;;;;5.58;63.70;99689.78;4990625;28;101202;-78
2023/02/01 04:27:47;;;;;;;9.27;2.40;;;;;;;5.46;63.88;99670.09;4982163;28;97594;-81
2023/02/01 04:30:13;;;;;;;11.17;2.50;;;;;;;5.61;63.16;99687.09;4996734;28;97155;-83
2023/02/01 04:32:38;;;;;;;11.63;3.87;;;;;;;5.58;63.40;99693.22;4987898;28;101393;-79
2023/02/01 04:35:05;;;;;;;12.80;3.63;;;;;;;5.60;63.17;99701.03;4993554;28;97843;-80
2023/02/01 04:37:30;;;;;;;15.63;4.23;;;;;;;5.42;63.65;99655.44;4976086;28;96753;-80
2023/02/01 04:39:56;;;;;;;10.43;2.57;;;;;;;5.55;63.51;99682.03;4991170;28;97140;-78
2023/02/01 04:42:21;;;;;;;11.87;2.77;;;;;;;5.54;63.42;99681.19;5006406;28;102276;-78
2023/02/01 04:44:47;;;;;;;15.97;4.57;;;;;;;5.50;63.27;99674.34;4991810;28;100480;-79
2023/02/01 04:47:14;;;;;;;11.13;3.40;;;;;;;5.55;63.40;99677.69;4991303;28;96995;-82
2023/02/01 04:49:39;;;;;;;12.40;2.70;;;;;;;5.53;62.95;99679.50;4992444;28;97425;-80
2023/02/01 04:52:05;;;;;;;11.53;3.23;;;;;;;5.59;62.95;99678.50;4984912;28;101542;-78
2023/02/01 04:54:31;;;;;;;10.50;2.73;;;;;;;5.47;63.25;99655.31;4979376;28;101007;-77
2023/02/01 04:56:56;;;;;;;11.77;3.00;;;;;;;5.61;62.81;99685.38;4987479;28;97203;-78
2023/02/01 04:59:22;;;;;;;11.63;2.70;;;;;;;5.61;62.84;99687.09;5004918;28;97411;-78
2023/02/01 05:01:47;;;;;;;14.17;5.40;;;;;;;5.57;63.04;99672.47;5000209;28;97412;-80
2023/02/01 05:04:13;;;;;;;14.20;3.87;;;;;;;5.61;62.75;99677.56;4974744;28;101441;-78
2023/02/01 05:06:38;;;;;;;12.37;2.83;;;;;;;5.58;63.11;99669.78;4970210;28;96755;-80
2023/02/01 05:09:04;;;;;;;21.93;6.93;;;;;;;5.60;62.95;99674.97;4977190;28;97400;-79
2023/02/01 05:14:13;;;;;;;14.63;2.93;;;;;;;5.65;62.33;99673.13;4990869;28;101298;-78
2023/02/01 05:16:39;;;;;;;13.03;2.87;;;;;;;5.49;62.43;99646.59;4975689;28;96729;-78
2023/02/01 05:19:05;;;;;;;10.77;2.83;;;;;;;5.59;62.46;99668.94;4996469;28;96774;-79
2023/02/01 05:21:30;;;;;;;16.13;5.53;;;;;;;5.59;62.28;99662.88;5009782;28;97374;-79
2023/02/01 05:24:19;;;;;;;13.90;3.60;;;;;;;5.65;62.14;99660.97;4972503;28;101592;-78
2023/02/01 05:26:45;;;;;;;13.00;3.37;;;;;;;5.56;62.70;99640.34;4976016;28;97243;-79
2023/02/01 05:29:11;;;;;;;13.30;2.80;;;;;;;5.59;62.17;99647.25;4985292;28;97194;-81
2023/02/01 05:31:37;;;;;;;11.47;3.00;;;;;;;5.73;62.00;99665.13;4987678;28;101570;-79
2023/02/01 05:34:03;;;;;;;15.03;4.03;;;;;;;5.70;62.06;99659.97;4971432;28;101728;-79
2023/02/01 05:36:29;;;;;;;13.73;3.70;;;;;;;5.69;61.96;99659.13;4990995;28;97897;-81
2023/02/01 05:38:54;;;;;;;13.27;2.97;;;;;;;5.68;61.86;99653.06;4966105;28;97395;-79
2023/02/01 05:41:20;;;;;;;8.03;2.70;;;;;;;5.74;61.57;99657.28;4990228;28;101440;-80
2023/02/01 05:43:45;;;;;;;13.67;3.77;;;;;;;5.72;61.90;99656.44;5007753;28;97808;-81
2023/02/01 05:46:12;;;;;;;16.10;3.57;;;;;;;5.70;62.05;99646.97;4975512;28;97992;-79
2023/02/01 05:48:39;;;;;;;12.47;2.90;;;;;;;5.75;61.67;99650.31;5009067;28;97474;-78
2023/02/01 05:51:04;;;;;;;11.70;2.73;;;;;;;5.63;61.58;99625.44;4977060;28;101423;-80
2023/02/01 05:53:30;;;;;;;11.50;2.90;;;;;;;5.68;61.57;99637.44;4986357;28;100788;-78
2023/02/01 05:55:56;;;;;;;13.03;3.30;;;;;;;5.72;61.68;99634.75;4959209;28;96913;-78
2023/02/01 05:58:21;;;;;;;12.70;3.30;;;;;;;5.71;61.71;99646.94;4977522;28;97998;-79
2023/02/01 06:00:47;;;;;;;10.20;3.10;;;;;;;5.70;61.97;99636.53;4975874;28;101251;-81
2023/02/01 06:03:12;;;;;;;15.57;2.97;;;;;;;5.65;61.59;99629.72;4986905;28;99328;-79
2023/02/01 06:05:38;;;;;;;13.77;3.07;;;;;;;5.69;61.54;99630.50;5008510;28;96705;-78
2023/02/01 06:08:03;;;;;;;8.83;2.70;;;;;;;5.64;61.87;99624.53;4983889;28;96864;-81
2023/02/01 06:10:29;;;;;;;13.97;3.50;;;;;;;5.71;61.88;99633.91;5009528;28;101516;-78
2023/02/01 06:12:55;;;;;;;14.87;3.20;;;;;;;5.70;61.83;99631.34;4974134;28;101616;-78
2023/02/01 06:15:20;;;;;;;15.53;3.67;;;;;;;5.56;61.71;99595.25;4965366;28;97229;-79
2023/02/01 06:17:46;;;;;;;10.53;3.10;;;;;;;5.72;61.97;99632.16;5011192;28;97013;-78
2023/02/01 06:20:13;;;;;;;10.13;3.00;;;;;;;5.72;61.67;99621.75;4985599;28;97983;-78
2023/02/01 06:22:39;;;;;;;13.20;3.40;;;;;;;5.73;61.88;99624.31;4999339;28;101303;-79
2023/02/01 06:25:07;;;;;;;16.67;2.90;;;;;;;5.75;61.60;99634.69;4986999;28;97391;-79
2023/02/01 06:27:33;;;;;;;17.57;3.17;;;;;;;5.75;61.78;99626.88;4967108;28;98112;-81
2023/02/01 06:29:58;;;;;;;10.83;3.20;;;;;;;5.73;61.86;99618.22;4974208;28;100670;-80
2023/02/01 06:32:24;;;;;;;12.00;3.10;;;;;;;5.79;61.31;99636.31;5001661;28;101533;-82
2023/02/01 06:34:52;;;;;;;13.57;3.37;;;;;;;5.76;61.30;99631.19;4979287;28;96996;-80
2023/02/01 06:37:19;;;;;;;11.07;3.17;;;;;;;5.68;61.53;99615.78;5008209;28;97446;-82
2023/02/01 06:39:44;;;;;;;11.27;3.73;;;;;;;5.72;61.80;99622.59;4991312;28;101922;-79
2023/02/01 06:42:10;;;;;;;10.63;3.07;;;;;;;5.85;61.74;99641.38;4972375;28;100931;-79
2023/02/01 06:44:35;;;;;;;12.67;3.53;;;;;;;5.80;61.45;99636.28;5002599;28;97158;-79
2023/02/01 06:47:03;;;;;;;9.43;2.90;;;;;;;5.82;61.67;99644.94;5009736;28;98074;-79
2023/02/01 06:49:29;;;;;;;13.03;3.13;;;;;;;5.87;61.76;99644.78;4991956;28;98602;-79
2023/02/01 06:51:54;;;;;;;10.23;2.57;;;;;;;5.84;61.65;99632.69;4998160;28;101209;-79
2023/02/01 06:54:20;;;;;;;7.43;2.80;;;;;;;5.86;61.63;99646.53;4969246;28;97247;-82
2023/02/01 06:56:45;;;;;;;11.80;2.97;;;;;;;5.84;61.61;99645.72;4970681;28;97735;-78
2023/02/01 06:59:11;;;;;;;14.13;3.23;;;;;;;5.75;61.26;99627.72;4973044;28;101946;-79
2023/02/01 07:01:37;;;;;;;13.53;2.90;;;;;;;5.87;61.51;99644.78;4970614;28;101624;-79
2023/02/01 07:04:02;;;;;;;11.27;2.77;;;;;;;5.86;61.40;99646.53;4989473;28;97081;-79
2023/02/01 07:06:28;;;;;;;10.13;2.80;;;;;;;5.83;61.48;99641.41;4967584;28;96858;-78
2023/02/01 07:08:56;;;;;;;9.37;3.10;;;;;;;5.87;61.43;99650.00;5011041;28;97720;-78
2023/02/01 07:11:22;;;;;;;10.93;2.77;;;;;;;5.89;61.52;99667.31;5002652;28;101235;-79
2023/02/01 07:13:48;;;;;;;11.07;3.33;;;;;;;5.87;61.25;99645.63;4983997;28;97065;-80
2023/02/01 07:16:16;;;;;;;9.93;2.63;;;;;;;5.92;61.64;99650.75;4986524;28;97137;-79
2023/02/01 07:18:41;;;;;;;6.77;2.73;;;;;;;5.93;61.55;99649.00;4978943;28;101164;-82
2023/02/01 07:21:07;;;;;;;18.47;3.03;;;;;;;5.95;61.61;99660.28;4999474;28;100777;-81
2023/02/01 07:23:33;;;;;;;10.40;2.73;;;;;;;5.95;61.58;99663.72;4980924;28;97937;-80
2023/02/01 07:26:01;;;;;;;9.90;2.70;;;;;;;5.75;61.57;99621.66;4979843;28;97265;-78
2023/02/01 07:28:28;;;;;;;9.47;2.47;;;;;;;5.85;61.70;99634.44;4979032;28;101687;-78
2023/02/01 07:30:54;;;;;;;11.43;2.70;;;;;;;5.98;61.76;99663.63;4981574;28;99891;-79
2023/02/01 07:33:21;;;;;;;12.70;3.00;;;;;;;5.93;61.47;99641.16;4952463;28;97095;-82
2023/02/01 07:35:47;;;;;;;12.33;2.27;;;;;;;6.00;61.58;99658.41;4971945;28;97269;-80
2023/02/01 07:38:13;;;;;;;12.50;3.40;;;;;;;6.00;61.62;99648.84;4949822;28;100823;-79
2023/02/01 07:40:39;;;;;;;13.37;2.80;;;;;;;6.03;61.19;99646.16;4984565;28;97279;-78
2023/02/01 07:43:06;;;;;;;7.33;2.57;;;;;;;6.05;61.63;99659.13;4979132;28;97717;-78
2023/02/01 07:45:31;;;;;;;10.40;2.80;;;;;;;6.09;61.46;99652.94;4965560;28;97281;-79
2023/02/01 07:47:57;;;;;;;13.33;3.20;;;;;;;6.07;61.44;99652.97;4951979;28;101496;-78
2023/02/01 07:50:22;;;;;;;12.57;2.83;;;;;;;6.01;61.71;99647.06;4985021;28;101238;-80
2023/02/01 07:52:48;;;;;;;10.47;2.73;;;;;;;6.03;61.96;99656.56;4997034;28;97195;-79
2023/02/01 07:55:14;;;;;;;14.87;2.90;;;;;;;6.00;62.02;99648.84;4968598;28;97412;-77
2023/02/01 07:57:39;;;;;;;9.07;2.93;;;;;;;6.02;61.60;99647.06;4967677;28;101673;-76
2023/02/01 08:02:50;;;;;;;13.87;3.97;;;;;;;6.15;61.75;99651.94;4979627;28;97597;-77
2023/02/01 08:05:15;;;;;;;11.30;2.50;;;;;;;6.14;61.76;99635.44;4949860;28;97201;-78
2023/02/01 08:07:41;;;;;;;18.47;3.43;;;;;;;6.11;62.14;99631.16;4949497;28;101224;-78
2023/02/01 08:10:10;;;;;;;9.73;2.63;;;;;;;6.19;61.69;99640.53;4949981;28;101483;-80
2023/02/01 08:12:36;;;;;;;14.20;2.90;;;;;;;6.21;62.29;99633.53;4926250;28;97933;-79
2023/02/01 08:15:03;;;;;;;13.90;2.90;;;;;;;6.25;61.75;99630.78;4962715;28;97218;-80
2023/02/01 08:17:29;;;;;;;11.70;3.13;;;;;;;6.27;62.05;99634.19;4948741;28;98303;-81
2023/02/01 08:19:55;;;;;;;7.77;2.67;;;;;;;6.34;61.78;99632.28;4977509;28;101674;-82
2023/02/01 08:22:20;;;;;;;12.97;3.20;;;;;;;6.32;61.80;99626.28;4979081;28;97301;-84
2023/02/01 08:24:49;;;;;;;9.93;2.97;;;;;;;6.28;61.86;99609.00;5002356;28;96816;-80
2023/02/01 08:27:15;;;;;;;10.93;3.13;;;;;;;6.44;61.73;99623.31;4973590;28;101024;-81
2023/02/01 08:29:41;;;;;;;13.20;2.80;;;;;;;6.43;61.91;99616.41;4986501;28;99669;-81
2023/02/01 08:32:06;;;;;;;10.63;2.90;;;;;;;6.53;61.57;99619.59;5009988;28;97195;-80
2023/02/01 08:34:32;;;;;;;9.77;2.90;;;;;;;6.57;61.62;99615.97;4994247;28;97266;-81
2023/02/01 08:36:59;;;;;;;13.23;3.23;;;;;;;6.56;61.52;99601.25;4972185;28;100811;-81
2023/02/01 08:39:26;;;;;;;10.90;2.67;;;;;;;6.61;61.41;99611.56;4971610;28;97395;-80
2023/02/01 08:44:36;;;;;;;9.27;2.97;;;;;;;6.67;61.32;99608.78;4990007;28;97016;-80
2023/02/01 08:47:03;;;;;;;12.17;3.73;;;;;;;6.68;61.14;99616.53;4989068;28;101341;-83
2023/02/01 08:49:29;;;;;;;13.53;3.23;;;;;;;6.56;61.30;99615.13;4975705;28;100326;-80
2023/02/01 08:51:54;;;;;;;12.50;3.13;;;;;;;6.65;61.28;99610.56;4999587;28;96748;-78
2023/02/01 08:54:21;;;;;;;13.73;3.07;;;;;;;6.57;61.45;99613.38;4969844;28;97293;-79
2023/02/01 08:56:47;;;;;;;16.30;3.13;;;;;;;6.60;61.75;99617.66;4972889;28;98364;-81
2023/02/01 08:59:12;;;;;;;12.10;3.47;;;;;;;6.54;61.60;99616.97;4985469;28;101465;-78
2023/02/01 09:01:38;;;;;;;11.87;2.80;;;;;;;6.61;61.81;99620.22;4994605;28;97297;-82
2023/02/01 09:04:03;;;;;;;9.93;2.63;;;;;;;6.56;61.88;99614.28;5000742;28;97684;-79
2023/02/01 09:06:29;;;;;;;13.10;2.53;;;;;;;6.47;62.20;99598.91;5020151;27;97729;-81
2023/02/01 09:08:55;;;;;;;12.97;3.20;;;;;;;6.49;62.61;99597.97;4970306;28;101058;-79
2023/02/01 09:11:21;;;;;;;12.17;3.20;;;;;;;6.62;62.54;99621.94;4986711;28;97243;-78
2023/02/01 09:13:47;;;;;;;13.30;3.20;;;;;;;6.55;63.12;99610.84;5019388;28;97091;-79
2023/02/01 09:16:13;;;;;;;10.97;2.83;;;;;;;6.57;62.84;99611.66;4983293;28;98229;-77
2023/02/01 09:18:39;;;;;;;7.60;2.73;;;;;;;6.61;62.91;99622.84;4998412;28;101636;-78
2023/02/01 09:21:06;;;;;;;12.13;3.00;;;;;;;6.43;62.82;99574.69;4968110;28;97182;-80
2023/02/01 09:23:31;;;;;;;11.73;2.50;;;;;;;6.63;62.99;99604.53;4990308;28;97368;-77
2023/02/01 09:26:01;;;;;;;11.87;2.93;;;;;;;6.61;62.82;99615.03;4993744;28;101501;-78
2023/02/01 09:28:27;;;;;;;8.00;2.57;;;;;;;6.60;62.78;99600.25;4969699;28;101909;-77
2023/02/01 09:30:58;;;;;;;6.23;2.50;;;;;;;6.66;62.75;99607.91;5009522;28;97141;-77
2023/02/01 09:33:27;;;;;;;9.13;2.60;;;;;;;6.69;62.73;99604.34;4988196;28;97295;-80
2023/02/01 09:36:11;;;;;;;8.83;2.23;;;;;;;6.75;62.47;99607.66;4970908;28;97603;-82
2023/02/01 09:38:36;;;;;;;8.27;2.40;;;;;;;6.76;62.41;99596.31;5000591;28;101546;-80
2023/02/01 09:41:27;;;;;;;6.13;2.27;;;;;;;6.77;62.17;99581.50;4967430;28;97513;-79
2023/02/01 09:44:08;;;;;;;5.43;2.13;;;;;;;6.79;62.30;99582.31;4955900;28;97784;-79
2023/02/01 09:46:34;;;;;;;5.55;1.80;;;;;;;6.86;62.31;99588.19;4998527;28;98139;-80
2023/02/01 09:49:03;;;;;;;7.32;2.28;;;;;;;6.89;62.01;99596.78;4998832;28;97937;-81
2023/02/01 09:51:39;;;;;;;5.70;2.30;;;;;;;6.88;62.01;99591.63;4990046;28;96833;-81
2023/02/01 09:54:15;;;;;;;8.23;2.70;;;;;;;6.89;62.08;99590.69;4988505;28;97691;-79
2023/02/01 09:56:50;;;;;;;5.60;2.10;;;;;;;6.91;62.07;99581.94;5006581;28;101325;-78
2023/02/01 09:59:22;;;;;;;7.28;1.92;;;;;;;6.98;62.15;99579.97;4997330;28;101303;-78
2023/02/01 10:01:47;;;;;;;6.35;1.90;;;;;;;6.97;61.99;99578.28;4986844;28;96899;-78
2023/02/01 10:04:14;;;;;;;5.25;1.70;;;;;;;6.96;61.65;99572.22;4990574;28;97789;-76
2023/02/01 10:07:01;;;;;;;6.88;2.10;;;;;;;7.01;61.58;99566.84;4992243;28;101521;-77
2023/02/01 10:09:36;;;;;;;8.77;2.20;;;;;;;6.99;61.66;99577.34;5004147;28;97930;-77
2023/02/01 10:12:10;;;;;;;9.70;2.00;;;;;;;7.02;61.82;99568.56;5002553;28;97156;-77
2023/02/01 10:14:42;;;;;;;8.60;2.37;;;;;;;7.06;61.78;99566.69;4987813;28;97189;-77
2023/02/01 10:17:23;;;;;;;7.00;2.63;;;;;;;7.02;61.75;99569.41;4983485;28;99615;-77
2023/02/01 10:19:49;;;;;;;6.35;2.28;;;;;;;7.11;61.88;99559.59;4976225;28;100815;-76
2023/02/01 10:22:44;;;;;;;6.30;2.03;;;;;;;7.15;61.48;99566.41;4981572;28;97350;-77
2023/02/01 10:25:22;;;;;;;5.57;2.15;;;;;;;7.15;61.41;99556.81;4988997;28;97578;-77
2023/02/01 10:27:48;;;;;;;7.30;2.20;;;;;;;7.16;61.30;99552.47;4954212;28;100022;-76
2023/02/01 10:30:25;;;;;;;8.80;2.30;;;;;;;7.22;61.35;99547.91;4987392;28;101027;-77
2023/02/01 10:33:14;;;;;;;9.10;2.80;;;;;;;7.28;61.19;99553.84;4971072;28;97584;-77
2023/02/01 10:35:41;;;;;;;6.70;2.40;;;;;;;7.31;60.94;99546.75;5011167;28;97180;-76
2023/02/01 10:38:27;;;;;;;8.23;2.53;;;;;;;7.32;61.23;99542.38;4985457;28;99977;-77
2023/02/01 10:40:56;;;;;;;10.00;3.20;;;;;;;7.42;60.60;99538.56;5011299;27;101159;-76
2023/02/01 10:43:21;;;;;;;7.32;2.10;;;;;;;7.47;61.21;99524.41;4981379;28;97196;-77
2023/02/01 10:45:47;;;;;;;7.25;2.03;;;;;;;7.56;60.88;99527.63;5011477;28;97546;-78
2023/02/01 10:48:13;;;;;;;5.82;2.28;;;;;;;7.59;60.95;99531.00;4998029;28;101000;-78
2023/02/01 10:50:58;;;;;;;8.30;2.40;;;;;;;7.60;60.24;99532.72;5001802;28;97399;-78
2023/02/01 10:53:29;;;;;;;7.73;2.57;;;;;;;7.51;60.14;99513.91;4995378;28;96987;-79
2023/02/01 10:55:55;;;;;;;7.25;2.50;;;;;;;7.41;59.96;99490.69;4990399;28;97451;-77
2023/02/01 10:58:31;;;;;;;8.53;2.97;;;;;;;7.57;60.16;99527.59;4959732;28;101151;-78
2023/02/01 11:01:05;;;;;;;8.10;2.60;;;;;;;7.58;59.98;99520.59;4991493;28;97205;-77
2023/02/01 11:03:42;;;;;;;8.75;2.15;;;;;;;7.50;60.27;99515.63;4969240;28;98020;-77
2023/02/01 11:06:27;;;;;;;8.70;2.20;;;;;;;7.47;60.65;99531.41;4984444;28;97676;-78
2023/02/01 11:09:20;;;;;;;7.63;2.38;;;;;;;7.45;61.03;99509.75;4994484;28;101102;-79
2023/02/01 11:11:46;;;;;;;6.72;2.20;;;;;;;7.46;61.33;99511.44;4996189;28;101509;-77
2023/02/01 11:14:30;;;;;;;10.82;2.67;;;;;;;7.48;61.24;99500.03;4968116;28;97292;-79
2023/02/01 11:17:02;;;;;;;7.35;1.95;;;;;;;7.21;61.61;99487.91;4989934;28;96805;-80
2023/02/01 11:19:28;;;;;;;8.35;2.65;;;;;;;7.11;62.16;99468.25;4999881;28;101078;-78
2023/02/01 11:21:56;;;;;;;5.15;2.08;;;;;;;7.13;61.84;99477.72;4992337;28;97635;-78
2023/02/01 11:24:28;;;;;;;5.15;2.10;;;;;;;7.25;62.04;99499.97;4997696;28;97783;-79
2023/02/01 11:26:58;;;;;;;8.10;2.17;;;;;;;7.20;62.16;99496.66;4965005;28;97014;-79
2023/02/01 11:29:29;;;;;;;7.40;2.53;;;;;;;7.14;62.79;99496.84;4967566;28;99601;-79
2023/02/01 11:31:59;;;;;;;7.30;2.33;;;;;;;7.11;62.60;99486.50;4968819;28;101571;-79
2023/02/01 11:34:28;;;;;;;3.58;1.67;;;;;;;7.02;62.92;99474.63;4983605;28;97410;-79
2023/02/01 11:36:57;;;;;;;3.80;1.60;;;;;;;7.03;63.19;99482.38;5000070;28;96858;-79
2023/02/01 11:39:34;;;;;;;4.43;1.80;;;;;;;6.84;63.03;99454.34;4969394;28;100916;-80
2023/02/01 11:42:15;;;;;;;4.05;1.55;;;;;;;7.02;63.42;99470.25;4982247;28;99602;-81
2023/02/01 11:44:45;;;;;;;4.20;1.90;;;;;;;6.95;63.46;99455.72;4979504;28;97182;-80
2023/02/01 11:47:20;;;;;;;5.45;2.20;;;;;;;7.07;63.48;99464.88;4968407;28;97497;-79
2023/02/01 11:49:47;;;;;;;5.05;1.77;;;;;;;7.01;63.65;99465.06;4984816;28;101153;-80
2023/02/01 11:52:50;;;;;;;3.63;1.50;;;;;;;6.99;64.15;99469.50;4967969;28;101200;-79
2023/02/01 11:55:42;;;;;;;5.60;1.90;;;;;;;6.98;64.40;99459.94;4962291;28;97219;-79
2023/02/01 11:58:59;;;;;;;4.15;1.77;;;;;;;6.96;64.26;99462.63;4999605;28;97701;-79
2023/02/01 12:01:40;;;;;;;6.03;2.10;;;;;;;6.96;64.39;99465.22;4920027;28;98406;-79
2023/02/01 12:04:25;;;;;;;;;;;;;;;6.96;64.63;99461.78;4959277;28;99950;-78
2023/02/01 12:07:16;;;;;;;5.17;1.80;;;;;;;6.91;64.85;99459.31;4999223;28;96678;-79
2023/02/01 12:09:57;;;;;;;5.10;2.13;;;;;;;6.90;65.13;99469.81;4979437;28;97205;-78
2023/02/01 12:12:37;;;;;;;4.53;1.80;;;;;;;6.79;64.63;99454.50;5001552;28;99364;-79
2023/02/01 12:15:21;;;;;;;5.17;1.90;;;;;;;6.83;64.69;99473.50;4965819;28;101552;-81
2023/02/01 12:18:13;;;;;;;4.38;1.98;;;;;;;6.86;64.85;99466.41;5003379;28;97161;-80